메인 페이지
METAR-TAF:

METAR-TAF

공항 :

암만, 요르단

위도: 31-59N, 경도: 035-59E, 고도: 767m

현재 날씨관측

예보는 1 시간 5분 전, 22:00시(UTC)에 발표되었습니다.
북서10kt
온도 14°C
습도 82%
기압 1016 hPa
시정 10km 이상
고도 1500ft 상공 구름 조금

METAR: OJAM 282200Z 31010KT 9999 FEW015 14/11 Q1016 NOSIG

시각: 02:05 (23:05 UTC)

예보

예보는 6 시간 5분 전, 17:00시(UTC)에 발표되었습니다.
예보 대상 시간: 28일 18시부터 29일 24시까지 (UTC)
서북서10kt
시정: 5000m
연무
확률 30% :
일시적
29일 02시부터 29일 05시까지 (UTC)
시정: 3000m
고도 3000ft 상공 구름 조금
박무

TAF: OJAM 281700Z 2818/2924 29010KT 5000 HZ NSC PROB30 TEMPO 2902/2905 3000 BR FEW030

4,000개 이상의 공항 관측 자료 및 예보 (METAR 및 TAF 보고).

지도상에서 검색 가능한 기상관측소가 노란 점과 빨간 점으로 표시되어 있습니다.

기상관측소 명을 보려면 표시 위로 마우스를 이동하세요.

날씨 관측과 예보를 보려면 클릭하세요.

지도 변경 : 확대하려면 엑스 표시가 있는 녹색 버튼, 축소하려면 빼기 표시가 있는 녹색 버튼, 다음 페이지의 지도를 보려면 녹색 화살표를 클릭하세요.


METAR-TAF: